Página principal
METAR-TAF:

METAR-TAF

Aeroportos :

Aeroporto Internacional do Bahrain

Bahrein, Bahrein

latitude: 26-16N, longitude: 050-39E, altura: 2 m

Observação actual do tempo

O boletim foi feito há 12 minutos, às 07:00 UTC
Vento 10 kt de es-sudeste, variando entre es-sudeste e sul
Temperatura 28°C
Humidade 74%
Pressão 1014 hPa
Visibilidade 10 km ou mais
sem nuvens abaixo de 1500 metros e sem cumulonimbus

METAR: OBBI 150700Z 12010KT 110V170 CAVOK 28/23 Q1014 NOSIG

Hora: 10:12 (07:12 UTC)

Previsão

O boletim foi feito há 2 horas e 12 minutos, às 05:00 UTC
Previsão válida de 15 às 06 UTC a 16 às 12 UTC
Vento 13 kt de sudeste
Visibilidade 10 km ou mais
sem nuvens abaixo de 1500 metros e sem cumulonimbus
Probabilidade 40% :
Temporariamente
de 16 às 08 UTC a 16 às 12 UTC
Visibilidade: 8000 m
Poucas nuvensa uma altura de 3000 ft
Nuvens dispersasa uma altura de 8000 ft

TAF: OBBI 150500Z 1506/1612 13013KT CAVOK PROB40 TEMPO 1608/1612 8000 FEW030 SCT080

Observações e previsões do tempo de mais de 4000 aeroportos (mensagens METAR e TAF).

As estações disponíveis são os pontos amarelos e vermelhos sobre o mapa.

Mova o rato sobre o mapa para ver o nome da estação.

Depois clique no ponto para visualizar as observações e previsões meteorológicas.

Para alterar o mapa : clique nos botões verdes com uma cruz preta para aumentar o zoom; no botão verde com uma pitada de zoom; ou nas setas verdes para mapas adjacentes.


METAR-TAF: